createdAt,value
2023-05-24T00:00:08.743Z,2.20
2023-05-24T00:05:08.529Z,2.00
2023-05-24T00:10:08.628Z,1.80
2023-05-24T00:15:08.619Z,1.80
2023-05-24T00:20:08.694Z,1.77
2023-05-24T00:25:08.701Z,2.00
2023-05-24T00:30:08.660Z,2.40
2023-05-24T00:35:08.631Z,2.15
2023-05-24T00:40:08.699Z,1.95
2023-05-24T00:45:08.682Z,2.00
2023-05-24T00:50:08.667Z,2.20
2023-05-24T00:55:08.748Z,2.20
2023-05-24T01:00:08.748Z,2.45
2023-05-24T01:05:08.866Z,1.65
2023-05-24T01:10:08.880Z,1.75
2023-05-24T01:15:08.865Z,2.00
2023-05-24T01:20:08.898Z,2.25
2023-05-24T01:25:08.066Z,2.05
2023-05-24T01:30:08.029Z,2.00
2023-05-24T01:35:07.982Z,1.90
2023-05-24T01:40:07.994Z,1.80
2023-05-24T01:45:08.027Z,1.88
2023-05-24T01:50:08.024Z,2.42
2023-05-24T01:55:08.026Z,2.30
2023-05-24T02:00:07.995Z,2.67
2023-05-24T02:05:07.991Z,2.97
2023-05-24T02:10:08.024Z,2.80
2023-05-24T02:15:08.029Z,2.88
2023-05-24T02:20:08.072Z,3.03
2023-05-24T02:25:08.122Z,2.58
2023-05-24T02:30:08.107Z,2.92
2023-05-24T02:35:08.144Z,2.92
2023-05-24T02:40:08.163Z,2.33
2023-05-24T02:45:08.271Z,2.70
2023-05-24T02:50:08.235Z,2.97
2023-05-24T02:55:08.245Z,2.60
2023-05-24T03:00:08.261Z,2.92
2023-05-24T03:05:08.232Z,2.53
2023-05-24T03:10:08.292Z,2.80
2023-05-24T03:15:08.278Z,2.90
2023-05-24T03:20:08.349Z,2.45
2023-05-24T03:25:08.403Z,3.10
2023-05-24T03:30:08.405Z,2.53
2023-05-24T03:35:08.396Z,2.40
2023-05-24T03:40:08.423Z,2.83
2023-05-24T03:45:08.409Z,2.78
2023-05-24T03:50:08.419Z,2.95
2023-05-24T03:55:08.382Z,2.70
2023-05-24T04:00:08.352Z,2.60
2023-05-24T04:05:02.423Z,2.67
2023-05-24T04:10:02.490Z,2.78
2023-05-24T04:15:02.750Z,3.15
2023-05-24T04:20:03.021Z,3.22
2023-05-24T04:25:02.370Z,3.28
2023-05-24T04:30:03.224Z,2.80
2023-05-24T04:35:02.372Z,2.53
2023-05-24T04:40:02.554Z,2.47
2023-05-24T04:45:02.916Z,2.70
2023-05-24T04:50:02.068Z,2.85
2023-05-24T04:55:02.208Z,3.28
2023-05-24T05:00:02.373Z,3.13
2023-05-24T05:05:02.656Z,3.35
2023-05-24T05:10:02.916Z,3.20
2023-05-24T05:15:03.047Z,3.38
2023-05-24T05:20:02.298Z,2.97
2023-05-24T05:25:02.491Z,3.33
2023-05-24T05:30:02.612Z,3.00
2023-05-24T05:35:02.826Z,3.63
2023-05-24T05:40:02.902Z,3.28
2023-05-24T05:45:03.033Z,3.08
2023-05-24T05:50:02.288Z,4.15
2023-05-24T05:55:02.391Z,2.88
2023-05-24T06:00:02.601Z,3.47
2023-05-24T06:05:02.832Z,4.00
2023-05-24T06:10:02.901Z,4.10
2023-05-24T06:15:03.009Z,4.05
2023-05-24T06:20:02.259Z,4.10
2023-05-24T06:25:02.368Z,4.05
2023-05-24T06:30:02.571Z,4.88
2023-05-24T06:35:02.726Z,4.88
2023-05-24T06:40:02.966Z,5.22
2023-05-24T06:45:02.096Z,5.55
2023-05-24T06:50:02.174Z,4.88
2023-05-24T06:55:02.290Z,4.35
2023-05-24T07:00:02.406Z,4.20
2023-05-24T07:05:02.732Z,4.85
2023-05-24T07:10:03.003Z,3.97
2023-05-24T07:15:02.153Z,4.28
2023-05-24T07:20:02.562Z,4.18
2023-05-24T07:25:02.808Z,4.40
2023-05-24T07:30:03.034Z,4.35
2023-05-24T07:35:02.184Z,5.07
2023-05-24T07:40:02.388Z,5.32
2023-05-24T07:45:02.578Z,3.75
2023-05-24T07:50:02.748Z,3.70
2023-05-24T07:55:02.918Z,3.55
2023-05-24T08:00:03.433Z,4.00
2023-05-24T08:05:02.585Z,3.30
2023-05-24T08:10:02.646Z,4.15
2023-05-24T08:15:02.703Z,4.10
2023-05-24T08:20:03.041Z,3.85
2023-05-24T08:25:02.281Z,3.67
2023-05-24T08:30:02.439Z,3.72
2023-05-24T08:35:18.335Z,4.10
2023-05-24T08:40:02.148Z,3.80
2023-05-24T08:45:02.220Z,4.35
2023-05-24T08:50:02.453Z,3.35
2023-05-24T08:55:02.529Z,3.40
2023-05-24T09:00:02.849Z,3.35
2023-05-24T09:05:02.908Z,3.60
2023-05-24T09:10:03.071Z,3.88
2023-05-24T09:15:02.310Z,4.20
2023-05-24T09:20:02.737Z,3.60
2023-05-24T09:25:02.983Z,3.10
2023-05-24T09:30:02.069Z,4.82
2023-05-24T09:35:02.220Z,3.40
2023-05-24T09:40:02.365Z,3.33
2023-05-24T09:45:12.550Z,0
2023-05-24T09:50:02.743Z,2.80
2023-05-24T09:55:02.884Z,3.70
2023-05-24T10:00:02.098Z,4.60
2023-05-24T10:05:02.333Z,2.97
2023-05-24T10:10:07.423Z,3.15
2023-05-24T10:15:02.843Z,4.35
2023-05-24T10:20:02.955Z,4.28
2023-05-24T10:25:02.017Z,3.58
2023-05-24T10:30:02.126Z,3.30
2023-05-24T10:35:02.309Z,3.20
2023-05-24T10:40:02.444Z,3.42
2023-05-24T10:45:02.703Z,3.13
2023-05-24T10:50:02.930Z,3.88
2023-05-24T10:55:04.632Z,3.22
2023-05-24T11:00:03.226Z,2.97
2023-05-24T11:05:02.367Z,3.65
2023-05-24T11:10:02.587Z,3.28
2023-05-24T11:15:02.856Z,3.40
2023-05-24T11:20:03.196Z,3.10
2023-05-24T11:25:02.451Z,3.10
2023-05-24T11:30:02.649Z,3.15
2023-05-24T11:35:02.800Z,3.05
2023-05-24T11:40:02.880Z,3.33
2023-05-24T11:45:03.099Z,3.10
2023-05-24T11:50:02.164Z,3.70
2023-05-24T11:55:02.484Z,3.17
2023-05-24T12:00:02.562Z,3.65
2023-05-24T12:05:03.074Z,3.25
2023-05-24T12:10:02.379Z,3.47
2023-05-24T12:15:02.543Z,3.35
2023-05-24T12:20:02.775Z,3.28
2023-05-24T12:25:03.156Z,3.45
2023-05-24T12:30:02.293Z,3.55
2023-05-24T12:35:02.489Z,3.70
2023-05-24T12:40:02.697Z,3.30
2023-05-24T12:45:02.898Z,3.28
2023-05-24T12:50:03.037Z,3.22
2023-05-24T12:55:02.160Z,3.08
2023-05-24T13:00:02.290Z,3.60
2023-05-24T13:05:02.468Z,3.03
2023-05-24T13:10:02.676Z,2.90
2023-05-24T13:15:02.835Z,3.00
2023-05-24T13:20:03.107Z,3.40
2023-05-24T13:25:02.267Z,3.08
2023-05-24T13:30:02.656Z,3.63
2023-05-24T13:35:04.103Z,2.65
2023-05-24T13:40:02.412Z,3.17
2023-05-24T13:45:02.618Z,2.92
2023-05-24T13:50:02.738Z,3.20
2023-05-24T13:55:02.882Z,3.20
2023-05-24T14:00:03.104Z,2.72
2023-05-24T14:05:21.552Z,3.13
2023-05-24T14:10:02.830Z,2.95
2023-05-24T14:15:02.981Z,2.70
2023-05-24T14:20:02.211Z,2.42
2023-05-24T14:25:02.433Z,2.95
2023-05-24T14:30:02.576Z,2.65
2023-05-24T14:35:02.653Z,2.90
2023-05-24T14:40:02.754Z,3.50
2023-05-24T14:45:02.968Z,2.97
2023-05-24T14:50:02.038Z,2.60
2023-05-24T14:55:02.204Z,2.85
2023-05-24T15:00:02.364Z,2.75
2023-05-24T15:05:02.474Z,2.80
2023-05-24T15:10:02.587Z,2.60
2023-05-24T15:15:02.651Z,3.10
2023-05-24T15:20:02.856Z,2.65
2023-05-24T15:25:03.005Z,2.53
2023-05-24T15:30:02.117Z,3.35
2023-05-24T15:35:02.301Z,3.05
2023-05-24T15:40:02.403Z,3.17
2023-05-24T15:45:02.536Z,2.92
2023-05-24T15:50:02.675Z,2.70
2023-05-24T15:55:02.811Z,2.90
2023-05-24T16:00:02.856Z,2.78
2023-05-24T16:05:02.993Z,3.30
2023-05-24T16:10:02.088Z,3.80
2023-05-24T16:15:02.348Z,2.83
2023-05-24T16:20:02.485Z,2.80
2023-05-24T16:25:02.613Z,2.20
2023-05-24T16:30:02.851Z,3.00
2023-05-24T16:35:03.108Z,4.18
2023-05-24T16:40:02.282Z,3.22
2023-05-24T16:45:02.383Z,2.90
2023-05-24T16:50:02.487Z,2.88
2023-05-24T16:55:02.604Z,2.55
2023-05-24T17:00:02.897Z,2.90
2023-05-24T17:05:03.084Z,3.00
2023-05-24T17:10:02.249Z,4.60
2023-05-24T17:15:02.369Z,2.40
2023-05-24T17:20:02.589Z,2.40
2023-05-24T17:25:02.783Z,2.97
2023-05-24T17:30:03.030Z,3.13
2023-05-24T17:35:02.515Z,2.53
2023-05-24T17:40:02.783Z,2.80
2023-05-24T17:45:02.836Z,2.05
2023-05-24T17:50:02.953Z,2.10
2023-05-24T17:55:02.221Z,2.13
2023-05-24T18:00:02.409Z,2.90
2023-05-24T18:05:02.726Z,2.55
2023-05-24T18:10:03.106Z,2.40
2023-05-24T18:15:02.175Z,3.20
2023-05-24T18:20:02.384Z,2.83
2023-05-24T18:25:02.588Z,2.15
2023-05-24T18:30:02.776Z,2.45
2023-05-24T18:35:02.904Z,2.40
2023-05-24T18:40:03.004Z,2.50
2023-05-24T18:45:02.080Z,2.97
2023-05-24T18:50:02.221Z,2.92
2023-05-24T18:55:02.381Z,2.45
2023-05-24T19:00:02.527Z,2.60
2023-05-24T19:05:02.643Z,1.90
2023-05-24T19:10:02.776Z,2.35
2023-05-24T19:15:02.997Z,2.90
2023-05-24T19:20:02.214Z,2.10
2023-05-24T19:25:02.358Z,2.40
2023-05-24T19:30:02.537Z,2.42
2023-05-24T19:35:02.662Z,2.13
2023-05-24T19:40:02.804Z,2.50
2023-05-24T19:45:02.913Z,2.22
2023-05-24T19:50:03.050Z,1.88
2023-05-24T19:55:02.179Z,2.60
2023-05-24T20:00:02.371Z,2.33
2023-05-24T20:05:02.422Z,2.20
2023-05-24T20:10:02.577Z,2.05
2023-05-24T20:15:02.833Z,2.35
2023-05-24T20:20:03.044Z,2.20
2023-05-24T20:25:02.901Z,2.17
2023-05-24T20:30:03.033Z,2.10
2023-05-24T20:35:02.694Z,2.25
2023-05-24T20:40:02.949Z,2.42
2023-05-24T20:45:02.100Z,3.25
2023-05-24T20:50:02.289Z,3.55
2023-05-24T20:55:02.471Z,3.40
2023-05-24T21:00:02.587Z,2.38
2023-05-24T21:05:15.510Z,2.40
2023-05-24T21:10:08.517Z,2.58
2023-05-24T21:15:08.480Z,2.55
2023-05-24T21:20:08.558Z,3.88
2023-05-24T21:25:08.644Z,3.40
2023-05-24T21:30:08.663Z,2.58
2023-05-24T21:35:08.752Z,2.58
2023-05-24T21:40:08.803Z,3.22
2023-05-24T21:45:08.847Z,3.08
2023-05-24T21:50:08.849Z,2.60
2023-05-24T21:55:08.840Z,2.20
2023-05-24T22:00:08.897Z,2.60
2023-05-24T22:05:08.926Z,2.33
2023-05-24T22:10:07.969Z,2.58
2023-05-24T22:15:07.995Z,2.38
2023-05-24T22:20:08.019Z,3.00
2023-05-24T22:25:08.067Z,2.53
2023-05-24T22:30:08.049Z,2.03
2023-05-24T22:35:08.086Z,2.08
2023-05-24T22:40:08.192Z,2.38
2023-05-24T22:45:08.224Z,2.25
2023-05-24T22:50:08.209Z,2.50
2023-05-24T22:55:08.193Z,2.50
2023-05-24T23:01:16.727Z,2.20
2023-05-24T23:05:08.872Z,2.15
2023-05-24T23:10:08.682Z,2.67
2023-05-24T23:15:08.697Z,2.50
2023-05-24T23:20:08.703Z,2.80
2023-05-24T23:25:08.713Z,3.00
2023-05-24T23:30:08.729Z,2.88
2023-05-24T23:35:08.794Z,3.05
2023-05-24T23:40:08.846Z,2.63
2023-05-24T23:45:08.830Z,2.20
2023-05-24T23:50:08.830Z,2.95
2023-05-24T23:55:08.865Z,3.67
